SKPC/PCR METAR and TAF weather

Enter ICAO airport designator
Station Type Date Time Source
SKPC METAR 2020/09/22 22:00 UTC NOAA

SKPC 222200Z 03005KT 9999 TS SCT017CB SCT070 27/23 A2975 RERA RMK CB/S


Station Type Date Time Source
SKPC Decoded METAR 2020/09/22 22:00 UTC NOAA

Puerto Carreno / A. Guauquea, Colombia (SKPC) 06-10N 067-30W
Sep 22, 2020 - 06:00 PM EDT / 2020.09.22 2200 UTC
Wind: from the NNE (030 degrees) at 6 MPH (5 KT):0
Visibility: greater than 7 mile(s):0
Sky conditions: partly cloudy
Weather: thunder; Cumulonimbus clouds observed
Temperature: 80 F (27 C)
Dew Point: 73 F (23 C)
Relative Humidity: 78%
Pressure (altimeter): 29.75 in. Hg (1007 hPa)
ob: SKPC 222200Z 03005KT 9999 TS SCT017CB SCT070 27/23 A2975 RERA RMK CB/S
cycle: 22

Station Type Date Time Source
SKPC TAF UTC NOAA

Error!

Example: see airport list